Time;durP1;ratioP1;P1;durP2;ratioP2;P2;SDS_P1;SDS_P2;PMS_P1;PMS_P2;Temp;Humidity;BMP_temperature;BMP_pressure;BME280_temperature;BME280_humidity;BME280_pressure;Samples;Min_cycle;Max_cycle;Signal;HPM_P1;HPM_P2
2021/12/23 00:02:22;;;;;;;0.73;0.60;;;-0.90;99.90;;;;;;5051825;28;20234;-68
2021/12/23 00:04:48;;;;;;;0.70;0.50;;;-0.90;99.90;;;;;;5052828;28;20179;-69
2021/12/23 00:07:13;;;;;;;1.23;1.13;;;-0.90;99.90;;;;;;5055375;28;20690;-69
2021/12/23 00:10:24;;;;;;;2.73;2.00;;;-0.90;99.90;;;;;;5055071;28;20199;-69
2021/12/23 00:12:24;;;;;;;0.90;0.77;;;-0.90;99.90;;;;;;5046753;28;20213;-68
2021/12/23 00:14:51;;;;;;;1.33;1.10;;;-0.90;99.90;;;;;;5054250;28;20520;-69
2021/12/23 00:17:25;;;;;;;1.47;1.23;;;-0.90;99.90;;;;;;5053341;28;20739;-69
2021/12/23 00:25:16;;;;;;;1.07;1.07;;;-0.90;99.90;;;;;;5052061;28;20501;-69
2021/12/23 00:27:41;;;;;;;1.43;1.33;;;-0.90;99.90;;;;;;5052523;28;20433;-69
2021/12/23 00:30:08;;;;;;;0.70;0.60;;;-0.90;99.90;;;;;;5053576;28;20183;-69
2021/12/23 00:32:33;;;;;;;0.70;0.50;;;-0.90;99.90;;;;;;5052953;28;20264;-69
2021/12/23 00:34:59;;;;;;;0.70;0.60;;;-0.90;99.90;;;;;;5053855;28;20886;-69
2021/12/23 00:37:25;;;;;;;0.70;0.60;;;-0.90;99.90;;;;;;5054546;28;20410;-69
2021/12/23 00:39:52;;;;;;;1.63;1.53;;;-0.90;99.90;;;;;;5054833;28;20605;-68
2021/12/23 00:42:18;;;;;;;0.70;0.50;;;-0.90;99.90;;;;;;5051386;28;20706;-69
2021/12/23 00:44:47;;;;;;;0.90;0.90;;;-0.90;99.90;;;;;;5053537;28;20467;-69
2021/12/23 00:47:14;;;;;;;0.70;0.50;;;-0.90;99.90;;;;;;5058380;28;20771;-69
2021/12/23 00:49:40;;;;;;;1.37;1.27;;;-0.90;99.90;;;;;;5061377;28;20509;-69
2021/12/23 00:52:08;;;;;;;2.13;1.43;;;-0.90;99.90;;;;;;5052782;28;20934;-68
2021/12/23 00:54:34;;;;;;;0.70;0.50;;;-0.90;99.90;;;;;;5053004;28;20884;-69
2021/12/23 00:57:00;;;;;;;2.30;1.07;;;-0.90;99.90;;;;;;5052537;28;20924;-69
2021/12/23 00:59:25;;;;;;;1.27;0.80;;;-1.00;99.90;;;;;;5053470;28;20461;-69
2021/12/23 01:01:51;;;;;;;0.70;0.60;;;-0.90;99.90;;;;;;5052536;28;20186;-69
2021/12/23 01:04:17;;;;;;;0.70;0.50;;;-0.90;99.90;;;;;;5054144;28;20528;-69
2021/12/23 01:06:42;;;;;;;0.60;0.50;;;-0.90;99.90;;;;;;5053201;28;20278;-69
2021/12/23 01:09:08;;;;;;;8.87;2.03;;;-0.90;99.90;;;;;;5053300;28;20194;-69
2021/12/23 01:11:34;;;;;;;2.57;2.37;;;-1.00;99.90;;;;;;5053082;28;20179;-69
2021/12/23 01:14:25;;;;;;;0.70;0.60;;;-1.00;99.90;;;;;;5053119;28;20201;-69
2021/12/23 01:19:25;;;;;;;0.70;0.50;;;-1.00;99.90;;;;;;5052774;28;20468;-69
2021/12/23 01:21:51;;;;;;;0.70;0.60;;;-1.00;99.90;;;;;;5051700;28;20590;-69
2021/12/23 01:24:17;;;;;;;0.63;0.50;;;-1.00;99.90;;;;;;5052058;28;20509;-69
2021/12/23 01:26:42;;;;;;;0.70;0.50;;;-1.00;99.90;;;;;;5051587;28;20439;-69
2021/12/23 01:29:08;;;;;;;1.37;1.27;;;-1.10;99.90;;;;;;5052171;28;20190;-69
2021/12/23 01:31:37;;;;;;;0.63;0.50;;;-1.00;99.90;;;;;;5053140;28;20179;-69
2021/12/23 01:34:03;;;;;;;1.60;1.50;;;-1.00;99.90;;;;;;5053714;28;20425;-69
2021/12/23 01:36:29;;;;;;;1.10;1.07;;;-1.10;99.90;;;;;;5051979;28;20443;-69
2021/12/23 01:38:55;;;;;;;0.90;0.90;;;-1.10;99.90;;;;;;5053456;28;20548;-67
2021/12/23 01:41:23;;;;;;;6.00;2.00;;;-1.10;99.90;;;;;;5052533;28;20181;-68
2021/12/23 01:43:49;;;;;;;1.63;0.87;;;-1.10;99.90;;;;;;5052354;28;20959;-68
2021/12/23 01:46:15;;;;;;;1.00;0.70;;;-1.10;99.90;;;;;;5051565;28;20520;-68
2021/12/23 01:48:41;;;;;;;2.13;1.23;;;-1.20;99.90;;;;;;5053320;28;20406;-68
2021/12/23 01:51:06;;;;;;;11.63;2.30;;;-1.20;99.90;;;;;;5050831;28;20231;-68
2021/12/23 01:53:32;;;;;;;1.63;1.53;;;-1.20;99.90;;;;;;5049761;28;20461;-68
2021/12/23 01:55:59;;;;;;;0.70;0.70;;;-1.20;99.90;;;;;;5052251;28;20222;-68
2021/12/23 01:58:25;;;;;;;4.30;2.30;;;-1.10;99.90;;;;;;5052127;28;20203;-67
2021/12/23 02:00:52;;;;;;;0.70;0.50;;;-1.10;99.90;;;;;;5050456;28;20436;-68
2021/12/23 02:03:18;;;;;;;0.70;0.53;;;-1.10;99.90;;;;;;5052683;28;20206;-68
2021/12/23 02:05:43;;;;;;;0.70;0.50;;;-1.10;99.90;;;;;;5052689;28;20420;-68
2021/12/23 02:08:09;;;;;;;0.70;0.50;;;-1.10;99.90;;;;;;5052363;28;20524;-68
2021/12/23 02:10:36;;;;;;;1.73;1.17;;;-1.00;99.90;;;;;;5052051;28;20244;-67
2021/12/23 02:13:02;;;;;;;0.60;0.50;;;-1.00;99.90;;;;;;5052062;28;20460;-68
2021/12/23 02:15:27;;;;;;;0.70;0.50;;;-1.00;99.90;;;;;;5052426;28;20899;-68
2021/12/23 02:17:54;;;;;;;1.43;1.30;;;-1.00;99.90;;;;;;5050110;28;20556;-68
2021/12/23 02:20:30;;;;;;;2.67;2.47;;;-1.10;99.90;;;;;;5051375;28;20206;-68
2021/12/23 02:22:57;;;;;;;1.10;1.00;;;-1.00;99.90;;;;;;5051813;28;20456;-68
2021/12/23 02:25:23;;;;;;;0.67;0.50;;;-1.00;99.90;;;;;;5051099;28;20437;-68
2021/12/23 02:27:50;;;;;;;1.87;0.80;;;-1.00;99.90;;;;;;5050612;28;20444;-68
2021/12/23 02:30:26;;;;;;;0.70;0.50;;;-1.00;99.90;;;;;;5050021;28;20426;-68
2021/12/23 02:32:52;;;;;;;0.70;0.50;;;-1.00;99.90;;;;;;5052330;28;20523;-68
2021/12/23 02:35:20;;;;;;;0.70;0.50;;;-0.90;99.90;;;;;;5052035;28;20512;-68
2021/12/23 02:37:47;;;;;;;1.37;1.27;;;-0.90;99.90;;;;;;5050482;28;20489;-68
2021/12/23 02:40:27;;;;;;;1.90;1.80;;;-0.90;99.90;;;;;;5052067;28;20409;-69
2021/12/23 02:42:54;;;;;;;0.70;0.67;;;-0.90;99.90;;;;;;5041447;28;20485;-68
2021/12/23 02:45:19;;;;;;;4.93;2.83;;;-0.80;99.90;;;;;;5032066;28;20406;-68
2021/12/23 02:47:45;;;;;;;1.77;1.63;;;-0.80;99.90;;;;;;5043601;28;20783;-68
2021/12/23 02:50:11;;;;;;;2.50;1.00;;;-0.80;99.90;;;;;;5051581;28;20163;-68
2021/12/23 02:52:37;;;;;;;3.60;1.63;;;-0.80;99.90;;;;;;5048458;28;20193;-68
2021/12/23 02:55:03;;;;;;;1.13;1.03;;;-0.80;99.90;;;;;;5050093;28;20946;-68
2021/12/23 02:57:34;;;;;;;1.53;1.43;;;-0.80;99.90;;;;;;5051311;28;20638;-68
2021/12/23 02:59:59;;;;;;;1.00;0.90;;;-0.80;99.90;;;;;;5050860;28;20431;-68
2021/12/23 03:02:25;;;;;;;1.00;0.80;;;-0.70;99.90;;;;;;5051308;28;20957;-68
2021/12/23 03:04:50;;;;;;;1.17;0.70;;;-0.70;99.90;;;;;;5050992;28;20177;-68
2021/12/23 03:07:16;;;;;;;0.67;0.50;;;-0.70;99.90;;;;;;5051044;28;20182;-68
2021/12/23 03:09:47;;;;;;;4.63;2.10;;;-0.70;99.90;;;;;;5050816;28;20545;-68
2021/12/23 03:12:12;;;;;;;0.70;0.50;;;-0.70;99.90;;;;;;5049255;28;20275;-68
2021/12/23 03:14:38;;;;;;;0.67;0.50;;;-0.70;99.90;;;;;;5050963;28;20954;-68
2021/12/23 03:17:04;;;;;;;0.80;0.60;;;-0.70;99.90;;;;;;5051528;28;20174;-67
2021/12/23 03:19:30;;;;;;;0.67;0.53;;;-0.60;99.90;;;;;;5050662;28;20563;-68
2021/12/23 03:21:55;;;;;;;1.50;1.00;;;-0.60;99.90;;;;;;5050166;28;20429;-68
2021/12/23 03:24:21;;;;;;;0.70;0.60;;;-0.60;99.90;;;;;;5051581;28;20167;-68
2021/12/23 03:26:47;;;;;;;1.17;0.70;;;-0.60;99.90;;;;;;5050567;28;20178;-68
2021/12/23 03:29:13;;;;;;;0.70;0.50;;;-0.60;99.90;;;;;;5050711;28;20178;-67
2021/12/23 03:31:39;;;;;;;2.90;1.67;;;-0.60;99.90;;;;;;5051077;28;20440;-67
2021/12/23 03:34:05;;;;;;;0.80;0.80;;;-0.60;99.90;;;;;;5050844;28;20453;-67
2021/12/23 03:36:30;;;;;;;1.13;1.03;;;-0.70;99.90;;;;;;5051104;28;20666;-67
2021/12/23 03:38:56;;;;;;;0.70;0.50;;;-0.60;99.90;;;;;;5050414;28;20529;-67
2021/12/23 03:41:22;;;;;;;1.40;1.23;;;-0.60;99.90;;;;;;5050619;28;20223;-67
2021/12/23 03:43:47;;;;;;;0.70;0.60;;;-0.60;99.90;;;;;;5050224;28;20197;-67
2021/12/23 03:46:13;;;;;;;1.13;1.03;;;-0.60;99.90;;;;;;5051244;28;20658;-67
2021/12/23 03:48:38;;;;;;;0.70;0.50;;;-0.60;99.90;;;;;;5049098;28;20675;-68
2021/12/23 03:51:04;;;;;;;0.60;0.50;;;-0.60;99.90;;;;;;5066265;28;20179;-68
2021/12/23 03:53:30;;;;;;;0.70;0.50;;;-0.60;99.90;;;;;;5048951;28;20199;-68
2021/12/23 03:55:55;;;;;;;0.70;0.60;;;-0.60;99.90;;;;;;5050220;28;20190;-68
2021/12/23 03:58:21;;;;;;;0.70;0.70;;;-0.60;99.90;;;;;;5051235;28;20198;-68
2021/12/23 04:00:47;;;;;;;1.87;1.70;;;-0.60;99.90;;;;;;5049702;28;20196;-68
2021/12/23 04:03:13;;;;;;;0.60;0.50;;;-0.60;99.90;;;;;;5050431;28;20448;-68
2021/12/23 04:05:38;;;;;;;0.70;0.60;;;-0.60;99.90;;;;;;5050537;28;20833;-68
2021/12/23 04:08:04;;;;;;;0.60;0.50;;;-0.50;99.90;;;;;;5048667;28;20167;-68
2021/12/23 04:10:31;;;;;;;1.03;1.03;;;-0.50;99.90;;;;;;5050850;28;20183;-67
2021/12/23 04:12:56;;;;;;;0.67;0.50;;;-0.50;99.90;;;;;;5051287;28;20420;-68
2021/12/23 04:15:23;;;;;;;0.80;0.70;;;-0.50;99.90;;;;;;5050980;28;20879;-68
2021/12/23 04:17:49;;;;;;;1.47;1.40;;;-0.60;99.90;;;;;;5049455;28;20277;-68
2021/12/23 04:20:21;;;;;;;0.80;0.73;;;-0.60;99.90;;;;;;5050728;28;20828;-69
2021/12/23 04:22:49;;;;;;;0.70;0.70;;;-0.60;99.90;;;;;;5049185;28;20445;-68
2021/12/23 04:25:16;;;;;;;0.70;0.60;;;-0.60;99.90;;;;;;5053966;28;20394;-68
2021/12/23 04:27:43;;;;;;;1.00;0.97;;;-0.70;99.90;;;;;;5045814;28;20437;-68
2021/12/23 04:30:10;;;;;;;0.90;0.90;;;-0.70;99.90;;;;;;5054133;28;20432;-68
2021/12/23 04:32:36;;;;;;;2.07;1.93;;;-0.70;99.90;;;;;;5054006;28;20514;-68
2021/12/23 04:35:02;;;;;;;0.70;0.50;;;-0.60;99.90;;;;;;5051722;28;20434;-68
2021/12/23 04:37:28;;;;;;;1.13;1.03;;;-0.70;99.90;;;;;;5053800;28;20540;-69
2021/12/23 04:39:53;;;;;;;0.80;0.80;;;-0.70;99.90;;;;;;5054818;28;20402;-68
2021/12/23 04:42:19;;;;;;;0.70;0.57;;;-0.70;99.90;;;;;;5051416;28;20189;-68
2021/12/23 04:44:45;;;;;;;0.80;0.70;;;-0.70;99.90;;;;;;5054696;28;20221;-69
2021/12/23 04:47:10;;;;;;;1.33;1.33;;;-0.60;99.90;;;;;;5052407;28;20429;-68
2021/12/23 04:49:36;;;;;;;1.17;1.07;;;-0.70;99.90;;;;;;5054315;28;20173;-68
2021/12/23 04:52:01;;;;;;;0.70;0.60;;;-0.70;99.90;;;;;;5052324;28;20652;-68
2021/12/23 04:54:27;;;;;;;1.70;1.60;;;-0.70;99.90;;;;;;5051616;28;20187;-68
2021/12/23 04:56:52;;;;;;;0.60;0.50;;;-0.70;99.90;;;;;;5053907;28;20250;-68
2021/12/23 04:59:18;;;;;;;3.70;1.03;;;-0.80;99.90;;;;;;5052451;28;20288;-68
2021/12/23 05:01:44;;;;;;;0.70;0.63;;;-0.80;99.90;;;;;;5052197;28;20198;-68
2021/12/23 05:04:09;;;;;;;0.67;0.50;;;-0.80;99.90;;;;;;5054284;28;20190;-69
2021/12/23 05:06:35;;;;;;;0.70;0.70;;;-0.80;99.90;;;;;;5053346;28;20229;-68
2021/12/23 05:09:00;;;;;;;0.70;0.70;;;-0.70;99.90;;;;;;5053417;28;20259;-69
2021/12/23 05:11:26;;;;;;;0.60;0.50;;;-0.80;99.90;;;;;;5052575;28;20174;-69
2021/12/23 05:13:51;;;;;;;0.60;0.50;;;-0.80;99.90;;;;;;5053417;28;20195;-69
2021/12/23 05:16:18;;;;;;;0.67;0.50;;;-0.80;99.90;;;;;;5052383;28;20304;-68
2021/12/23 05:18:44;;;;;;;0.70;0.50;;;-0.80;99.90;;;;;;5051391;28;20289;-68
2021/12/23 05:21:09;;;;;;;1.90;1.27;;;-0.90;99.90;;;;;;5053178;28;20445;-68
2021/12/23 05:23:35;;;;;;;0.90;0.90;;;-0.90;99.90;;;;;;5052002;28;20767;-68
2021/12/23 05:26:01;;;;;;;1.13;1.03;;;-0.90;99.90;;;;;;5053688;28;20246;-68
2021/12/23 05:28:26;;;;;;;0.60;0.50;;;-0.90;99.90;;;;;;5051580;28;20678;-69
2021/12/23 05:30:52;;;;;;;2.00;1.90;;;-0.90;99.90;;;;;;5052464;28;20178;-69
2021/12/23 05:33:18;;;;;;;0.60;0.50;;;-0.90;99.90;;;;;;5053128;28;20198;-68
2021/12/23 05:35:43;;;;;;;0.63;0.50;;;-0.90;99.90;;;;;;5051196;28;20210;-68
2021/12/23 05:38:09;;;;;;;0.90;0.80;;;-0.90;99.90;;;;;;5052491;28;20226;-69
2021/12/23 05:40:35;;;;;;;0.70;0.50;;;-0.90;99.90;;;;;;5053063;28;20545;-68
2021/12/23 05:43:02;;;;;;;0.80;0.70;;;-0.90;99.90;;;;;;5052220;28;20761;-68
2021/12/23 05:45:28;;;;;;;0.70;0.60;;;-0.90;99.90;;;;;;5052492;28;20436;-68
2021/12/23 05:47:54;;;;;;;1.23;1.10;;;-0.90;99.90;;;;;;5052811;28;20915;-68
2021/12/23 05:50:21;;;;;;;1.40;1.37;;;-1.00;99.90;;;;;;5053003;28;20429;-68
2021/12/23 05:52:47;;;;;;;0.70;0.50;;;-0.90;99.90;;;;;;5049311;28;20193;-68
2021/12/23 05:55:14;;;;;;;0.70;0.50;;;-0.90;99.90;;;;;;5052290;28;21088;-68
2021/12/23 05:57:40;;;;;;;2.30;1.50;;;-0.90;99.90;;;;;;5053249;28;20174;-68
2021/12/23 06:00:21;;;;;;;0.90;0.70;;;-0.90;99.90;;;;;;5051443;28;20476;-68
2021/12/23 06:02:47;;;;;;;0.70;0.50;;;-0.90;99.90;;;;;;5052511;28;20445;-68
2021/12/23 06:05:14;;;;;;;0.70;0.57;;;-0.90;99.90;;;;;;5051692;28;20444;-69
2021/12/23 06:07:40;;;;;;;1.27;1.10;;;-0.90;99.90;;;;;;5051510;28;20414;-68
2021/12/23 06:10:06;;;;;;;3.50;1.47;;;-0.80;99.90;;;;;;5053120;28;20488;-68
2021/12/23 06:12:32;;;;;;;0.70;0.67;;;-0.80;99.90;;;;;;5050996;28;20445;-68
2021/12/23 06:14:57;;;;;;;2.80;2.17;;;-0.80;99.90;;;;;;5050577;28;20449;-68
2021/12/23 06:17:23;;;;;;;0.70;0.70;;;-0.80;99.90;;;;;;5051402;28;20364;-69
2021/12/23 06:20:26;;;;;;;0.83;0.83;;;-0.70;99.90;;;;;;5051943;28;20541;-68
2021/12/23 06:22:52;;;;;;;0.70;0.60;;;-0.70;99.90;;;;;;5049106;28;20196;-68
2021/12/23 06:25:18;;;;;;;0.90;0.90;;;-0.80;99.90;;;;;;5052601;28;20810;-68
2021/12/23 06:27:44;;;;;;;0.70;0.60;;;-0.70;99.90;;;;;;5051263;28;20535;-68
2021/12/23 06:30:21;;;;;;;0.70;0.50;;;-0.70;99.90;;;;;;5052847;28;20401;-68
2021/12/23 06:32:52;;;;;;;0.83;0.80;;;-0.70;99.90;;;;;;5051978;28;20772;-68
2021/12/23 06:35:19;;;;;;;0.60;0.50;;;-0.70;99.90;;;;;;5051514;28;20445;-68
2021/12/23 06:37:45;;;;;;;13.57;2.67;;;-0.70;99.90;;;;;;5050327;28;20425;-68
2021/12/23 06:40:12;;;;;;;0.70;0.60;;;-0.60;99.90;;;;;;5052484;28;20929;-68
2021/12/23 06:42:37;;;;;;;0.67;0.50;;;-0.60;99.90;;;;;;5049612;28;20205;-68
2021/12/23 06:45:04;;;;;;;0.63;0.50;;;-0.60;99.90;;;;;;5050323;28;20809;-68
2021/12/23 06:47:30;;;;;;;0.60;0.50;;;-0.60;99.90;;;;;;5050890;28;20182;-69
2021/12/23 06:49:55;;;;;;;0.70;0.60;;;-0.60;99.90;;;;;;5049716;28;20433;-69
2021/12/23 06:52:21;;;;;;;5.10;1.90;;;-0.50;99.90;;;;;;5050491;28;20201;-69
2021/12/23 06:54:52;;;;;;;1.73;1.63;;;-0.50;99.90;;;;;;5051241;28;20575;-69
2021/12/23 06:57:17;;;;;;;1.50;1.40;;;-0.50;99.90;;;;;;5049777;28;20209;-69
2021/12/23 06:59:43;;;;;;;1.00;1.00;;;-0.40;99.90;;;;;;5051043;28;20493;-68
2021/12/23 07:02:09;;;;;;;1.10;0.93;;;-0.50;99.90;;;;;;5051416;28;20257;-68
2021/12/23 07:04:36;;;;;;;0.60;0.50;;;-0.40;99.90;;;;;;5050787;28;20173;-68
2021/12/23 07:07:12;;;;;;;1.27;1.17;;;-0.40;99.90;;;;;;5051052;28;20175;-69
2021/12/23 07:09:40;;;;;;;0.60;0.50;;;-0.40;99.90;;;;;;5050717;28;20933;-68
2021/12/23 07:12:07;;;;;;;1.23;1.20;;;-0.30;99.90;;;;;;5049735;28;20802;-68
2021/12/23 07:14:33;;;;;;;0.70;0.70;;;-0.30;99.90;;;;;;5051307;28;20443;-68
2021/12/23 07:16:59;;;;;;;1.23;1.13;;;-0.30;99.90;;;;;;5048794;28;21077;-68
2021/12/23 07:19:25;;;;;;;0.70;0.60;;;-0.30;99.90;;;;;;5050134;28;20532;-68
2021/12/23 07:21:50;;;;;;;0.60;0.50;;;-0.20;99.90;;;;;;5049041;28;20174;-69
2021/12/23 07:24:16;;;;;;;2.50;1.43;;;-0.30;99.90;;;;;;5051641;28;20228;-69
2021/12/23 07:26:41;;;;;;;0.67;0.50;;;-0.30;99.90;;;;;;5050445;28;20180;-69
2021/12/23 07:29:07;;;;;;;0.60;0.50;;;-0.20;99.90;;;;;;5050781;28;20268;-68
2021/12/23 07:31:33;;;;;;;0.70;0.50;;;-0.20;99.90;;;;;;5047713;28;20179;-69
2021/12/23 07:33:58;;;;;;;1.53;1.43;;;-0.20;99.90;;;;;;5050427;28;20320;-68
2021/12/23 07:36:27;;;;;;;1.63;1.00;;;-0.20;99.90;;;;;;5050824;28;20531;-68
2021/12/23 07:38:53;;;;;;;0.70;0.70;;;-0.20;99.90;;;;;;5050929;28;20695;-69
2021/12/23 07:41:19;;;;;;;1.93;1.83;;;-0.20;99.90;;;;;;5050830;28;20429;-68
2021/12/23 07:43:56;;;;;;;3.40;1.37;;;-0.20;99.90;;;;;;5050349;28;20452;-69
2021/12/23 07:46:22;;;;;;;1.53;1.17;;;-0.20;99.90;;;;;;5051184;28;20172;-68
2021/12/23 07:48:47;;;;;;;1.17;0.80;;;-0.10;99.90;;;;;;5050867;28;20520;-68
2021/12/23 07:51:13;;;;;;;1.77;1.17;;;-0.10;99.90;;;;;;5050974;28;20524;-68
2021/12/23 07:53:38;;;;;;;0.70;0.50;;;-0.10;99.90;;;;;;5049520;28;20620;-68
2021/12/23 07:56:04;;;;;;;0.70;0.50;;;-0.10;99.90;;;;;;5048933;28;20276;-69
2021/12/23 07:58:30;;;;;;;0.70;0.67;;;-0.10;99.90;;;;;;5051619;28;20737;-68
2021/12/23 08:00:56;;;;;;;4.00;1.57;;;-0.10;99.90;;;;;;5053552;28;20170;-68
2021/12/23 08:03:21;;;;;;;0.67;0.50;;;-0.10;99.90;;;;;;5055384;28;20421;-69
2021/12/23 08:05:47;;;;;;;9.60;1.80;;;-0.10;99.90;;;;;;5055278;28;20175;-69
2021/12/23 08:08:12;;;;;;;2.40;2.30;;;-0.10;99.90;;;;;;5052478;28;20186;-70
2021/12/23 08:10:38;;;;;;;0.60;0.50;;;0.00;99.90;;;;;;5055245;28;20171;-68
2021/12/23 08:13:04;;;;;;;1.77;1.67;;;0.00;99.90;;;;;;5054419;28;20607;-68
2021/12/23 08:15:29;;;;;;;0.70;0.60;;;0.00;99.90;;;;;;5053000;28;20179;-68
2021/12/23 08:17:55;;;;;;;0.60;0.50;;;0.00;99.90;;;;;;5053899;28;20292;-68
2021/12/23 08:20:20;;;;;;;0.70;0.53;;;0.00;99.90;;;;;;5053026;28;20205;-68
2021/12/23 08:22:46;;;;;;;2.03;1.83;;;0.10;99.90;;;;;;5053132;28;20728;-69
2021/12/23 08:25:13;;;;;;;0.80;0.70;;;0.10;99.90;;;;;;5053405;28;20175;-69
2021/12/23 08:27:40;;;;;;;3.07;1.67;;;0.10;99.90;;;;;;5052337;28;20171;-69
2021/12/23 08:30:08;;;;;;;0.70;0.50;;;0.20;99.90;;;;;;5052207;28;20428;-70
2021/12/23 08:32:34;;;;;;;0.63;0.50;;;0.20;99.90;;;;;;5053143;28;21005;-68
2021/12/23 08:34:59;;;;;;;1.17;0.90;;;0.20;99.90;;;;;;5053708;28;20394;-70
2021/12/23 08:37:25;;;;;;;2.40;1.83;;;0.30;99.90;;;;;;5054948;28;20163;-69
2021/12/23 08:39:51;;;;;;;0.70;0.50;;;0.30;99.90;;;;;;5054050;28;20199;-68
2021/12/23 08:42:17;;;;;;;1.77;1.67;;;0.30;99.90;;;;;;5052663;28;20238;-68
2021/12/23 08:44:43;;;;;;;2.60;2.50;;;0.40;99.90;;;;;;5054389;28;20545;-69
2021/12/23 08:47:10;;;;;;;0.70;0.50;;;0.40;99.90;;;;;;5053848;28;20175;-69
2021/12/23 08:49:36;;;;;;;0.93;0.93;;;0.40;99.90;;;;;;5053927;28;20190;-70
2021/12/23 08:52:02;;;;;;;0.70;0.70;;;0.40;99.90;;;;;;5052536;28;20442;-69
2021/12/23 08:54:28;;;;;;;1.10;1.10;;;0.40;99.90;;;;;;5051048;28;20448;-69
2021/12/23 08:56:54;;;;;;;1.73;1.63;;;0.50;99.90;;;;;;5052945;28;20430;-69
2021/12/23 08:59:19;;;;;;;1.20;1.03;;;0.40;99.90;;;;;;5053568;28;20782;-68
2021/12/23 09:01:48;;;;;;;1.13;1.03;;;0.50;99.90;;;;;;5053720;28;20179;-68
2021/12/23 09:04:14;;;;;;;0.70;0.50;;;0.50;99.90;;;;;;5054220;28;20187;-68
2021/12/23 09:06:39;;;;;;;1.40;1.30;;;0.60;99.90;;;;;;5050967;28;20548;-68
2021/12/23 09:09:07;;;;;;;1.20;1.10;;;0.60;99.90;;;;;;5052193;28;20207;-69
2021/12/23 09:11:33;;;;;;;2.20;1.63;;;0.70;99.90;;;;;;5053119;28;20234;-69
2021/12/23 09:13:59;;;;;;;2.27;2.13;;;0.70;99.90;;;;;;5054129;28;20841;-68
2021/12/23 09:16:24;;;;;;;2.43;1.50;;;0.80;99.90;;;;;;5051509;28;20436;-68
2021/12/23 09:18:50;;;;;;;0.70;0.50;;;0.80;99.90;;;;;;5051236;28;20203;-68
2021/12/23 09:21:16;;;;;;;3.10;1.53;;;0.80;99.90;;;;;;5053759;28;20174;-68
2021/12/23 09:23:42;;;;;;;0.70;0.70;;;0.80;99.90;;;;;;5052731;28;20198;-68
2021/12/23 09:26:10;;;;;;;1.80;1.70;;;0.80;99.90;;;;;;5052530;28;20175;-68
2021/12/23 09:29:03;;;;;;;0.70;0.50;;;0.90;99.90;;;;;;5052227;28;21074;-68
2021/12/23 09:34:13;;;;;;;3.17;1.20;;;0.90;99.90;;;;;;5053815;28;20421;-68
2021/12/23 09:36:40;;;;;;;0.70;0.60;;;1.20;99.90;;;;;;5051791;28;20437;-69
2021/12/23 09:39:07;;;;;;;1.73;1.50;;;1.40;99.90;;;;;;5052826;28;20871;-68
2021/12/23 09:41:34;;;;;;;0.70;0.50;;;1.40;99.90;;;;;;5051807;28;20515;-68
2021/12/23 09:44:01;;;;;;;1.03;0.93;;;1.60;99.90;;;;;;5053540;28;20449;-69
2021/12/23 09:46:27;;;;;;;0.70;0.50;;;1.60;99.90;;;;;;5052575;28;20567;-68
2021/12/23 09:48:52;;;;;;;1.23;1.13;;;1.70;99.90;;;;;;5052640;28;20437;-68
2021/12/23 09:51:20;;;;;;;1.63;1.53;;;1.80;99.90;;;;;;5054090;28;20527;-68
2021/12/23 09:53:55;;;;;;;0.70;0.50;;;2.00;99.90;;;;;;5050895;28;20648;-68
2021/12/23 09:56:20;;;;;;;1.90;1.57;;;2.00;99.90;;;;;;5052791;28;20440;-68
2021/12/23 09:58:46;;;;;;;1.13;1.10;;;1.90;99.90;;;;;;5053271;28;20466;-68
2021/12/23 10:01:12;;;;;;;0.70;0.70;;;2.00;99.90;;;;;;5051252;28;20652;-68
2021/12/23 10:03:38;;;;;;;2.70;2.60;;;1.90;99.90;;;;;;5051489;28;20190;-68
2021/12/23 10:06:04;;;;;;;2.30;2.20;;;1.90;99.90;;;;;;5054270;28;20185;-68
2021/12/23 10:08:30;;;;;;;1.90;1.60;;;2.10;99.90;;;;;;5054530;28;20940;-68
2021/12/23 10:11:04;;;;;;;0.70;0.50;;;2.30;99.90;;;;;;5053390;28;20421;-69
2021/12/23 10:38:11;;;;;;;0.70;0.50;;;2.10;99.90;;;;;;5050768;28;20578;-68
2021/12/23 10:40:40;;;;;;;1.87;1.77;;;2.10;99.90;;;;;;5051168;28;20466;-68
2021/12/23 10:43:08;;;;;;;2.13;1.13;;;2.10;99.90;;;;;;5050483;28;20452;-70
2021/12/23 10:45:56;;;;;;;7.83;2.47;;;2.20;99.90;;;;;;5052363;28;20833;-69
2021/12/23 10:48:24;;;;;;;0.80;0.70;;;2.20;99.90;;;;;;5048872;28;20427;-69
2021/12/23 10:50:57;;;;;;;1.97;1.83;;;2.40;99.90;;;;;;5052596;28;20410;-69
2021/12/23 10:53:57;;;;;;;0.80;0.60;;;2.40;99.90;;;;;;5049657;28;20448;-69
2021/12/23 10:59:16;;;;;;;1.80;1.70;;;2.40;99.90;;;;;;5046959;28;20559;-69
2021/12/23 11:02:09;;;;;;;2.07;1.97;;;2.60;99.90;;;;;;5049947;28;20432;-70
2021/12/23 11:05:24;;;;;;;1.87;0.80;;;2.60;99.90;;;;;;5049559;28;20429;-69
2021/12/23 11:08:05;;;;;;;1.47;0.73;;;2.80;99.90;;;;;;5050567;28;20432;-69
2021/12/23 11:27:33;;;;;;;1.37;0.83;;;3.20;99.90;;;;;;5049572;28;20793;-70
2021/12/23 11:43:52;;;;;;;2.30;2.20;;;3.30;99.90;;;;;;5051773;28;20433;-71
2021/12/23 11:46:21;;;;;;;0.70;0.50;;;3.20;99.90;;;;;;5051499;28;20412;-70
2021/12/23 11:48:52;;;;;;;3.00;2.80;;;3.20;99.90;;;;;;5049082;28;20445;-71
2021/12/23 11:51:46;;;;;;;1.77;1.67;;;3.30;99.90;;;;;;5049055;28;20467;-70
2021/12/23 11:54:06;;;;;;;1.30;1.20;;;3.20;99.90;;;;;;5049586;28;21055;-70
2021/12/23 11:56:35;;;;;;;2.77;2.57;;;3.10;99.90;;;;;;5049980;28;20503;-70
2021/12/23 11:59:02;;;;;;;0.70;0.50;;;3.10;99.90;;;;;;5063811;28;20799;-70
2021/12/23 12:01:31;;;;;;;1.07;0.63;;;3.20;99.90;;;;;;5050240;28;20424;-70
2021/12/23 12:04:03;;;;;;;1.10;0.80;;;3.20;99.90;;;;;;5048961;28;20518;-70
2021/12/23 12:06:47;;;;;;;0.70;0.60;;;3.20;99.90;;;;;;5051180;28;20405;-70
2021/12/23 12:09:19;;;;;;;0.77;0.77;;;3.20;99.90;;;;;;5048660;28;20490;-70
2021/12/23 12:12:00;;;;;;;2.30;1.50;;;3.10;99.90;;;;;;5050723;28;20456;-70
2021/12/23 12:14:38;;;;;;;0.70;0.60;;;3.20;99.90;;;;;;5049237;28;20424;-70
2021/12/23 12:17:26;;;;;;;0.70;0.50;;;3.20;99.90;;;;;;5049059;28;20428;-70
2021/12/23 12:20:03;;;;;;;1.73;1.63;;;3.40;99.90;;;;;;5050083;28;20467;-70
2021/12/23 12:23:01;;;;;;;3.07;2.87;;;3.40;99.90;;;;;;5048949;28;20963;-70
2021/12/23 12:25:28;;;;;;;3.80;2.33;;;3.30;99.90;;;;;;5051056;28;20889;-70
2021/12/23 12:27:57;;;;;;;2.20;1.90;;;3.40;99.90;;;;;;5048904;28;20432;-70
2021/12/23 12:30:49;;;;;;;2.93;1.53;;;3.40;99.90;;;;;;5051309;28;20924;-70
2021/12/23 12:33:24;;;;;;;0.70;0.50;;;3.50;99.90;;;;;;5050372;28;20531;-70
2021/12/23 12:36:02;;;;;;;1.03;1.03;;;3.70;99.90;;;;;;5047691;28;20917;-70
2021/12/23 12:38:29;;;;;;;1.07;0.90;;;3.70;99.90;;;;;;5049671;28;20480;-70
2021/12/23 12:41:17;;;;;;;1.37;1.13;;;3.80;99.90;;;;;;5047066;28;21467;-70
2021/12/23 12:43:46;;;;;;;4.40;1.63;;;3.90;99.90;;;;;;5049024;28;20492;-70
2021/12/23 12:47:03;;;;;;;0.70;0.50;;;4.10;99.90;;;;;;5051055;28;20424;-69
2021/12/23 12:49:33;;;;;;;0.80;0.80;;;4.00;99.90;;;;;;5034324;28;20782;-70
2021/12/23 12:52:32;;;;;;;0.70;0.60;;;4.00;99.90;;;;;;5047847;28;20428;-69
2021/12/23 12:55:04;;;;;;;1.87;1.77;;;4.20;99.90;;;;;;5021193;28;20491;-69
2021/12/23 12:57:38;;;;;;;0.70;0.57;;;4.20;99.90;;;;;;5052783;28;20429;-69
2021/12/23 13:00:35;;;;;;;0.70;0.50;;;4.30;99.90;;;;;;5053851;28;20467;-69
2021/12/23 13:03:04;;;;;;;5.50;2.33;;;4.40;99.90;;;;;;5047442;28;20445;-69
2021/12/23 13:05:39;;;;;;;0.97;0.87;;;4.60;99.90;;;;;;5053623;28;20427;-69
2021/12/23 13:08:19;;;;;;;1.13;1.00;;;4.80;99.90;;;;;;5051905;28;20948;-67
2021/12/23 13:10:48;;;;;;;2.50;2.30;;;4.50;99.90;;;;;;5054274;28;20463;-69
2021/12/23 13:13:41;;;;;;;1.53;1.20;;;4.60;99.90;;;;;;5052504;28;20779;-69
2021/12/23 13:16:23;;;;;;;2.40;2.03;;;4.50;99.90;;;;;;5054003;28;20905;-69
2021/12/23 13:19:17;;;;;;;1.97;1.60;;;4.70;99.90;;;;;;5051077;28;20823;-69
2021/12/23 13:21:55;;;;;;;4.00;1.10;;;4.70;99.90;;;;;;5052826;28;20938;-69
2021/12/23 13:24:22;;;;;;;3.33;3.13;;;5.00;99.90;;;;;;5052957;28;20421;-69
2021/12/23 13:26:49;;;;;;;0.73;0.50;;;4.90;99.90;;;;;;5049838;28;20425;-69
2021/12/23 13:29:14;;;;;;;6.73;2.77;;;4.80;99.90;;;;;;5052776;28;20460;-70
2021/12/23 13:31:41;;;;;;;0.70;0.50;;;4.90;99.90;;;;;;5053075;28;20894;-69
2021/12/23 13:34:16;;;;;;;0.80;0.77;;;4.70;99.90;;;;;;5053963;28;20194;-70
2021/12/23 13:36:44;;;;;;;5.30;1.37;;;4.70;99.90;;;;;;5051213;28;20463;-69
2021/12/23 13:39:13;;;;;;;2.17;2.07;;;4.80;99.90;;;;;;5053658;28;20489;-70
2021/12/23 13:41:42;;;;;;;0.83;0.73;;;4.90;99.90;;;;;;5053346;28;20504;-69
2021/12/23 13:44:28;;;;;;;0.80;0.70;;;4.70;99.90;;;;;;5053784;28;20483;-69
2021/12/23 13:46:59;;;;;;;6.93;3.90;;;4.70;99.90;;;;;;5050921;28;20433;-69
2021/12/23 13:49:47;;;;;;;0.70;0.50;;;4.70;99.90;;;;;;5052285;28;20513;-69
2021/12/23 13:52:22;;;;;;;0.93;0.93;;;4.50;99.90;;;;;;5051490;28;20965;-69
2021/12/23 13:54:49;;;;;;;1.00;0.90;;;4.50;99.90;;;;;;5052359;28;20462;-69
2021/12/23 13:57:19;;;;;;;1.13;1.13;;;4.40;99.90;;;;;;5051038;28;20437;-69
2021/12/23 13:59:48;;;;;;;0.80;0.73;;;4.40;99.90;;;;;;5053387;28;20493;-69
2021/12/23 14:02:16;;;;;;;0.70;0.50;;;4.40;99.90;;;;;;5051817;28;20516;-70
2021/12/23 14:04:51;;;;;;;1.73;1.63;;;4.30;99.90;;;;;;5051660;28;20437;-70
2021/12/23 14:07:23;;;;;;;1.80;1.70;;;4.30;99.90;;;;;;5051825;28;20432;-70
2021/12/23 14:09:59;;;;;;;1.40;1.30;;;4.30;99.90;;;;;;5051746;28;20463;-70